Jefferson, South Carolina
Current Conditions -  °F | °C
As of 5:35 AM on Wednesday 22 Oct 2014 (Local Time) from KHVS Reporting Station
Clear Clear  
Wind Chill: 50°   Ceiling: Unl
Heat Index: 50°   Visibility: 10mi
Dew Point: 27°   Wind: 3mph
Humidity: 40%   Direction: 330°NNW
Pressure: 29.98"   Gusts: NA
Location:  34.65°N, 80.39°W
Report Text: KHVS 220935Z AUTO 33003KT 10SM CLR 10/M03 A2998 RMK AO2
Loading
Personal Weather Stations






























Interactive Weather Map
Tropical Storm Tracking
New forecast layout! Learn more

10-Day Weather Forecast

Advertisements
Track Severe Weather on mobile